Terminal Aerodrome Forecast
Issued by NWS

Home | Current Version | Previous Version | Text Only | Print | Product List | Glossary Off
Versions: 1 2 3 4 5 6 7 8 9 10 11 12 13 14 15 16 17

000
FTUS43 KMPX 132335
TAFRWF
TAF
KRWF 132335Z 1400/1424 34014G22KT P6SM BKN020 OVC045
     FM140300 34010KT P6SM BKN015
     FM140900 30007KT P6SM BKN025
     FM142100 31008KT P6SM BKN035=

USA.gov is the U.S. government's official web portal to all federal, state and local government web resources and services.